sensor_id;sensor_type;location;lat;lon;timestamp;temperature;humidity
21487;DHT22;10905;50.822;4.336;2023-07-13T00:00:46;18.10;99.90
21487;DHT22;10905;50.822;4.336;2023-07-13T00:03:12;18.10;99.90
21487;DHT22;10905;50.822;4.336;2023-07-13T00:05:39;18.00;99.90
21487;DHT22;10905;50.822;4.336;2023-07-13T00:08:05;18.00;99.90
21487;DHT22;10905;50.822;4.336;2023-07-13T00:10:30;18.00;99.90
21487;DHT22;10905;50.822;4.336;2023-07-13T00:12:57;18.00;99.90
21487;DHT22;10905;50.822;4.336;2023-07-13T00:15:25;18.10;99.90
21487;DHT22;10905;50.822;4.336;2023-07-13T00:17:55;18.10;99.90
21487;DHT22;10905;50.822;4.336;2023-07-13T00:20:22;18.10;99.90
21487;DHT22;10905;50.822;4.336;2023-07-13T00:22:50;18.10;99.90
21487;DHT22;10905;50.822;4.336;2023-07-13T00:25:18;18.00;99.90
21487;DHT22;10905;50.822;4.336;2023-07-13T00:27:43;17.90;99.90
21487;DHT22;10905;50.822;4.336;2023-07-13T00:30:10;17.90;99.90
21487;DHT22;10905;50.822;4.336;2023-07-13T00:32:36;17.90;99.90
21487;DHT22;10905;50.822;4.336;2023-07-13T00:35:03;17.90;99.90
21487;DHT22;10905;50.822;4.336;2023-07-13T00:37:30;17.90;99.90
21487;DHT22;10905;50.822;4.336;2023-07-13T00:39:55;17.90;99.90
21487;DHT22;10905;50.822;4.336;2023-07-13T00:42:21;18.00;99.90
21487;DHT22;10905;50.822;4.336;2023-07-13T00:47:31;17.90;99.90
21487;DHT22;10905;50.822;4.336;2023-07-13T00:49:57;17.80;99.90
21487;DHT22;10905;50.822;4.336;2023-07-13T00:52:23;17.80;99.90
21487;DHT22;10905;50.822;4.336;2023-07-13T00:54:49;17.70;99.90
21487;DHT22;10905;50.822;4.336;2023-07-13T00:57:17;17.70;99.90
21487;DHT22;10905;50.822;4.336;2023-07-13T00:59:48;17.70;99.90
21487;DHT22;10905;50.822;4.336;2023-07-13T01:02:16;17.60;99.90
21487;DHT22;10905;50.822;4.336;2023-07-13T01:04:41;17.60;99.90
21487;DHT22;10905;50.822;4.336;2023-07-13T01:07:10;17.60;99.90
21487;DHT22;10905;50.822;4.336;2023-07-13T01:09:36;17.60;99.90
21487;DHT22;10905;50.822;4.336;2023-07-13T01:12:02;17.60;99.90
21487;DHT22;10905;50.822;4.336;2023-07-13T01:14:28;17.50;99.90
21487;DHT22;10905;50.822;4.336;2023-07-13T01:16:54;17.50;99.90
21487;DHT22;10905;50.822;4.336;2023-07-13T01:22:02;17.50;99.90
21487;DHT22;10905;50.822;4.336;2023-07-13T01:24:28;17.60;99.90
21487;DHT22;10905;50.822;4.336;2023-07-13T01:26:54;17.60;99.90
21487;DHT22;10905;50.822;4.336;2023-07-13T01:29:21;17.50;99.90
21487;DHT22;10905;50.822;4.336;2023-07-13T01:31:47;17.40;99.90
21487;DHT22;10905;50.822;4.336;2023-07-13T01:34:12;17.40;99.90
21487;DHT22;10905;50.822;4.336;2023-07-13T01:36:38;17.40;99.90
21487;DHT22;10905;50.822;4.336;2023-07-13T01:39:04;17.40;99.90
21487;DHT22;10905;50.822;4.336;2023-07-13T01:41:30;17.50;99.90
21487;DHT22;10905;50.822;4.336;2023-07-13T01:43:55;17.50;99.90
21487;DHT22;10905;50.822;4.336;2023-07-13T01:46:21;17.40;99.90
21487;DHT22;10905;50.822;4.336;2023-07-13T01:48:47;17.40;99.90
21487;DHT22;10905;50.822;4.336;2023-07-13T01:51:12;17.30;99.90
21487;DHT22;10905;50.822;4.336;2023-07-13T01:53:39;17.20;99.90
21487;DHT22;10905;50.822;4.336;2023-07-13T01:56:04;17.20;99.90
21487;DHT22;10905;50.822;4.336;2023-07-13T01:58:30;17.30;99.90
21487;DHT22;10905;50.822;4.336;2023-07-13T02:00:55;17.40;99.90
21487;DHT22;10905;50.822;4.336;2023-07-13T02:03:21;17.30;99.90
21487;DHT22;10905;50.822;4.336;2023-07-13T02:05:47;17.30;99.90
21487;DHT22;10905;50.822;4.336;2023-07-13T02:08:12;17.30;99.90
21487;DHT22;10905;50.822;4.336;2023-07-13T02:10:38;17.30;99.90
21487;DHT22;10905;50.822;4.336;2023-07-13T02:13:06;17.20;99.90
21487;DHT22;10905;50.822;4.336;2023-07-13T02:15:31;17.20;99.90
21487;DHT22;10905;50.822;4.336;2023-07-13T02:17:57;17.20;99.90
21487;DHT22;10905;50.822;4.336;2023-07-13T02:20:24;17.20;99.90
21487;DHT22;10905;50.822;4.336;2023-07-13T02:22:50;17.20;99.90
21487;DHT22;10905;50.822;4.336;2023-07-13T02:25:15;17.20;99.90
21487;DHT22;10905;50.822;4.336;2023-07-13T02:27:41;17.10;99.90
21487;DHT22;10905;50.822;4.336;2023-07-13T02:30:08;17.00;99.90
21487;DHT22;10905;50.822;4.336;2023-07-13T02:32:33;17.00;99.90
21487;DHT22;10905;50.822;4.336;2023-07-13T02:35:00;17.00;99.90
21487;DHT22;10905;50.822;4.336;2023-07-13T02:37:25;17.00;99.90
21487;DHT22;10905;50.822;4.336;2023-07-13T02:39:51;17.00;99.90
21487;DHT22;10905;50.822;4.336;2023-07-13T02:42:16;17.00;99.90
21487;DHT22;10905;50.822;4.336;2023-07-13T02:44:42;17.00;99.90
21487;DHT22;10905;50.822;4.336;2023-07-13T02:47:08;17.10;99.90
21487;DHT22;10905;50.822;4.336;2023-07-13T02:49:33;17.10;99.90
21487;DHT22;10905;50.822;4.336;2023-07-13T02:51:59;17.10;99.90
21487;DHT22;10905;50.822;4.336;2023-07-13T02:54:25;17.00;99.90
21487;DHT22;10905;50.822;4.336;2023-07-13T02:56:50;17.00;99.90
21487;DHT22;10905;50.822;4.336;2023-07-13T02:59:16;16.90;99.90
21487;DHT22;10905;50.822;4.336;2023-07-13T03:01:41;17.00;99.90
21487;DHT22;10905;50.822;4.336;2023-07-13T03:04:07;16.90;99.90
21487;DHT22;10905;50.822;4.336;2023-07-13T03:06:33;16.80;99.90
21487;DHT22;10905;50.822;4.336;2023-07-13T03:08:59;16.70;99.90
21487;DHT22;10905;50.822;4.336;2023-07-13T03:11:26;16.70;99.90
21487;DHT22;10905;50.822;4.336;2023-07-13T03:13:51;16.80;99.90
21487;DHT22;10905;50.822;4.336;2023-07-13T03:16:17;16.80;99.90
21487;DHT22;10905;50.822;4.336;2023-07-13T03:18:43;16.80;99.90
21487;DHT22;10905;50.822;4.336;2023-07-13T03:21:09;16.70;99.90
21487;DHT22;10905;50.822;4.336;2023-07-13T03:23:35;16.70;99.90
21487;DHT22;10905;50.822;4.336;2023-07-13T03:26:15;16.80;99.90
21487;DHT22;10905;50.822;4.336;2023-07-13T03:28:42;16.80;99.90
21487;DHT22;10905;50.822;4.336;2023-07-13T03:31:12;16.80;99.90
21487;DHT22;10905;50.822;4.336;2023-07-13T03:33:38;16.80;99.90
21487;DHT22;10905;50.822;4.336;2023-07-13T03:36:05;16.80;99.90
21487;DHT22;10905;50.822;4.336;2023-07-13T03:38:32;16.70;99.90
21487;DHT22;10905;50.822;4.336;2023-07-13T03:40:58;16.70;99.90
21487;DHT22;10905;50.822;4.336;2023-07-13T03:43:23;16.60;99.90
21487;DHT22;10905;50.822;4.336;2023-07-13T03:45:49;16.70;99.90
21487;DHT22;10905;50.822;4.336;2023-07-13T03:48:15;16.80;99.90
21487;DHT22;10905;50.822;4.336;2023-07-13T03:50:40;16.90;99.90
21487;DHT22;10905;50.822;4.336;2023-07-13T03:53:06;16.90;99.90
21487;DHT22;10905;50.822;4.336;2023-07-13T03:55:32;16.90;99.90
21487;DHT22;10905;50.822;4.336;2023-07-13T03:58:00;16.90;99.90
21487;DHT22;10905;50.822;4.336;2023-07-13T04:00:26;17.00;99.90
21487;DHT22;10905;50.822;4.336;2023-07-13T04:02:52;17.10;99.90
21487;DHT22;10905;50.822;4.336;2023-07-13T04:05:17;17.10;99.90
21487;DHT22;10905;50.822;4.336;2023-07-13T04:07:44;17.10;99.90
21487;DHT22;10905;50.822;4.336;2023-07-13T04:10:09;17.00;99.90
21487;DHT22;10905;50.822;4.336;2023-07-13T04:12:35;17.10;99.90
21487;DHT22;10905;50.822;4.336;2023-07-13T04:15:01;17.10;99.90
21487;DHT22;10905;50.822;4.336;2023-07-13T04:17:26;17.10;99.90
21487;DHT22;10905;50.822;4.336;2023-07-13T04:19:52;17.10;99.90
21487;DHT22;10905;50.822;4.336;2023-07-13T04:22:18;17.10;99.90
21487;DHT22;10905;50.822;4.336;2023-07-13T04:24:43;17.10;99.90
21487;DHT22;10905;50.822;4.336;2023-07-13T04:27:09;17.20;99.90
21487;DHT22;10905;50.822;4.336;2023-07-13T04:29:34;17.30;99.90
21487;DHT22;10905;50.822;4.336;2023-07-13T04:32:00;17.40;99.90
21487;DHT22;10905;50.822;4.336;2023-07-13T04:34:26;17.50;99.90
21487;DHT22;10905;50.822;4.336;2023-07-13T04:36:52;17.50;99.90
21487;DHT22;10905;50.822;4.336;2023-07-13T04:39:17;17.50;99.90
21487;DHT22;10905;50.822;4.336;2023-07-13T04:41:43;17.40;99.90
21487;DHT22;10905;50.822;4.336;2023-07-13T04:44:08;17.40;99.90
21487;DHT22;10905;50.822;4.336;2023-07-13T04:46:34;17.40;99.90
21487;DHT22;10905;50.822;4.336;2023-07-13T04:49:00;17.40;99.90
21487;DHT22;10905;50.822;4.336;2023-07-13T04:51:26;17.50;99.90
21487;DHT22;10905;50.822;4.336;2023-07-13T04:53:51;17.50;99.90
21487;DHT22;10905;50.822;4.336;2023-07-13T04:56:17;17.50;99.90
21487;DHT22;10905;50.822;4.336;2023-07-13T04:58:43;17.50;99.90
21487;DHT22;10905;50.822;4.336;2023-07-13T05:01:09;17.50;99.90
21487;DHT22;10905;50.822;4.336;2023-07-13T05:03:35;17.40;99.90
21487;DHT22;10905;50.822;4.336;2023-07-13T05:06:04;17.50;99.90
21487;DHT22;10905;50.822;4.336;2023-07-13T05:08:30;17.40;99.90
21487;DHT22;10905;50.822;4.336;2023-07-13T05:10:56;17.40;99.90
21487;DHT22;10905;50.822;4.336;2023-07-13T05:13:22;17.40;99.90
21487;DHT22;10905;50.822;4.336;2023-07-13T05:15:59;17.40;99.90
21487;DHT22;10905;50.822;4.336;2023-07-13T05:18:25;17.50;99.90
21487;DHT22;10905;50.822;4.336;2023-07-13T05:20:58;17.50;99.90
21487;DHT22;10905;50.822;4.336;2023-07-13T05:23:23;17.60;99.90
21487;DHT22;10905;50.822;4.336;2023-07-13T05:25:49;17.80;99.90
21487;DHT22;10905;50.822;4.336;2023-07-13T05:28:14;17.80;99.90
21487;DHT22;10905;50.822;4.336;2023-07-13T05:30:45;17.70;99.90
21487;DHT22;10905;50.822;4.336;2023-07-13T05:33:11;17.60;99.90
21487;DHT22;10905;50.822;4.336;2023-07-13T05:35:37;17.80;99.90
21487;DHT22;10905;50.822;4.336;2023-07-13T05:38:03;17.80;99.90
21487;DHT22;10905;50.822;4.336;2023-07-13T05:40:28;17.80;99.90
21487;DHT22;10905;50.822;4.336;2023-07-13T05:42:54;17.80;99.90
21487;DHT22;10905;50.822;4.336;2023-07-13T05:45:19;17.90;99.90
21487;DHT22;10905;50.822;4.336;2023-07-13T05:47:45;18.00;99.90
21487;DHT22;10905;50.822;4.336;2023-07-13T05:50:10;18.00;99.90
21487;DHT22;10905;50.822;4.336;2023-07-13T05:52:36;18.00;99.90
21487;DHT22;10905;50.822;4.336;2023-07-13T05:55:03;17.90;99.90
21487;DHT22;10905;50.822;4.336;2023-07-13T05:57:29;18.10;99.90
21487;DHT22;10905;50.822;4.336;2023-07-13T05:59:55;18.20;99.90
21487;DHT22;10905;50.822;4.336;2023-07-13T06:02:21;18.20;99.90
21487;DHT22;10905;50.822;4.336;2023-07-13T06:04:46;18.10;99.90
21487;DHT22;10905;50.822;4.336;2023-07-13T06:07:12;18.10;99.90
21487;DHT22;10905;50.822;4.336;2023-07-13T06:09:37;18.20;99.90
21487;DHT22;10905;50.822;4.336;2023-07-13T06:12:04;18.20;99.90
21487;DHT22;10905;50.822;4.336;2023-07-13T06:14:30;18.30;99.90
21487;DHT22;10905;50.822;4.336;2023-07-13T06:16:55;18.30;99.90
21487;DHT22;10905;50.822;4.336;2023-07-13T06:19:21;18.40;99.90
21487;DHT22;10905;50.822;4.336;2023-07-13T06:21:47;18.40;99.90
21487;DHT22;10905;50.822;4.336;2023-07-13T06:24:12;18.50;99.90
21487;DHT22;10905;50.822;4.336;2023-07-13T06:26:38;18.70;99.90
21487;DHT22;10905;50.822;4.336;2023-07-13T06:29:03;18.60;99.90
21487;DHT22;10905;50.822;4.336;2023-07-13T06:31:29;18.70;99.90
21487;DHT22;10905;50.822;4.336;2023-07-13T06:33:55;18.70;99.90
21487;DHT22;10905;50.822;4.336;2023-07-13T06:36:20;18.90;99.90
21487;DHT22;10905;50.822;4.336;2023-07-13T06:38:46;19.00;99.90
21487;DHT22;10905;50.822;4.336;2023-07-13T06:41:11;19.00;99.90
21487;DHT22;10905;50.822;4.336;2023-07-13T06:43:37;19.00;99.90
21487;DHT22;10905;50.822;4.336;2023-07-13T06:46:02;19.10;99.90
21487;DHT22;10905;50.822;4.336;2023-07-13T06:48:28;19.20;99.90
21487;DHT22;10905;50.822;4.336;2023-07-13T06:50:54;19.30;99.90
21487;DHT22;10905;50.822;4.336;2023-07-13T06:53:21;19.40;99.90
21487;DHT22;10905;50.822;4.336;2023-07-13T06:55:47;19.30;99.90
21487;DHT22;10905;50.822;4.336;2023-07-13T06:58:17;19.40;99.90
21487;DHT22;10905;50.822;4.336;2023-07-13T07:00:44;19.50;99.90
21487;DHT22;10905;50.822;4.336;2023-07-13T07:03:09;19.40;99.90
21487;DHT22;10905;50.822;4.336;2023-07-13T07:05:35;19.50;99.90
21487;DHT22;10905;50.822;4.336;2023-07-13T07:08:00;19.50;99.90
21487;DHT22;10905;50.822;4.336;2023-07-13T07:10:26;19.50;99.90
21487;DHT22;10905;50.822;4.336;2023-07-13T07:12:52;19.40;99.90
21487;DHT22;10905;50.822;4.336;2023-07-13T07:15:18;19.40;99.90
21487;DHT22;10905;50.822;4.336;2023-07-13T07:17:43;19.40;99.90
21487;DHT22;10905;50.822;4.336;2023-07-13T07:20:09;19.50;99.90
21487;DHT22;10905;50.822;4.336;2023-07-13T07:22:35;19.60;99.90
21487;DHT22;10905;50.822;4.336;2023-07-13T07:25:01;19.80;99.90
21487;DHT22;10905;50.822;4.336;2023-07-13T07:27:26;19.80;99.90
21487;DHT22;10905;50.822;4.336;2023-07-13T07:29:52;19.90;99.90
21487;DHT22;10905;50.822;4.336;2023-07-13T07:32:19;19.90;99.90
21487;DHT22;10905;50.822;4.336;2023-07-13T07:34:45;19.80;99.90
21487;DHT22;10905;50.822;4.336;2023-07-13T07:37:12;19.80;99.90
21487;DHT22;10905;50.822;4.336;2023-07-13T07:39:38;20.00;99.90
21487;DHT22;10905;50.822;4.336;2023-07-13T07:42:04;20.00;99.90
21487;DHT22;10905;50.822;4.336;2023-07-13T07:44:31;19.90;99.90
21487;DHT22;10905;50.822;4.336;2023-07-13T07:46:57;19.90;99.90
21487;DHT22;10905;50.822;4.336;2023-07-13T07:49:22;19.70;99.90
21487;DHT22;10905;50.822;4.336;2023-07-13T07:51:48;19.70;99.90
21487;DHT22;10905;50.822;4.336;2023-07-13T07:54:14;19.80;99.90
21487;DHT22;10905;50.822;4.336;2023-07-13T07:56:40;19.90;99.90
21487;DHT22;10905;50.822;4.336;2023-07-13T07:59:05;19.90;99.90
21487;DHT22;10905;50.822;4.336;2023-07-13T08:01:32;19.80;99.90
21487;DHT22;10905;50.822;4.336;2023-07-13T08:03:58;19.90;99.90
21487;DHT22;10905;50.822;4.336;2023-07-13T08:06:24;20.10;99.90
21487;DHT22;10905;50.822;4.336;2023-07-13T08:08:50;20.10;99.90
21487;DHT22;10905;50.822;4.336;2023-07-13T08:11:16;20.20;99.90
21487;DHT22;10905;50.822;4.336;2023-07-13T08:13:42;20.20;99.90
21487;DHT22;10905;50.822;4.336;2023-07-13T08:16:08;20.30;99.90
21487;DHT22;10905;50.822;4.336;2023-07-13T08:18:34;20.30;99.90
21487;DHT22;10905;50.822;4.336;2023-07-13T08:21:06;20.50;99.90
21487;DHT22;10905;50.822;4.336;2023-07-13T08:23:32;20.70;99.90
21487;DHT22;10905;50.822;4.336;2023-07-13T08:25:58;20.80;99.90
21487;DHT22;10905;50.822;4.336;2023-07-13T08:28:24;20.80;99.90
21487;DHT22;10905;50.822;4.336;2023-07-13T08:30:49;20.80;99.90
21487;DHT22;10905;50.822;4.336;2023-07-13T08:33:17;20.90;99.90
21487;DHT22;10905;50.822;4.336;2023-07-13T08:35:46;20.70;99.90
21487;DHT22;10905;50.822;4.336;2023-07-13T08:38:12;20.80;99.90
21487;DHT22;10905;50.822;4.336;2023-07-13T08:40:39;20.90;99.90
21487;DHT22;10905;50.822;4.336;2023-07-13T08:43:04;20.80;99.90
21487;DHT22;10905;50.822;4.336;2023-07-13T08:45:43;20.80;99.90
21487;DHT22;10905;50.822;4.336;2023-07-13T08:48:23;20.80;99.90
21487;DHT22;10905;50.822;4.336;2023-07-13T08:53:22;21.00;99.90
21487;DHT22;10905;50.822;4.336;2023-07-13T08:55:54;21.00;99.90
21487;DHT22;10905;50.822;4.336;2023-07-13T08:58:23;21.10;99.90
21487;DHT22;10905;50.822;4.336;2023-07-13T09:01:21;21.10;99.90
21487;DHT22;10905;50.822;4.336;2023-07-13T09:04:16;21.20;99.90
21487;DHT22;10905;50.822;4.336;2023-07-13T09:14:49;21.30;99.90
21487;DHT22;10905;50.822;4.336;2023-07-13T09:17:25;21.40;99.90
21487;DHT22;10905;50.822;4.336;2023-07-13T09:22:39;21.20;99.90
21487;DHT22;10905;50.822;4.336;2023-07-13T09:25:23;21.20;99.90
21487;DHT22;10905;50.822;4.336;2023-07-13T09:27:54;21.20;99.90
21487;DHT22;10905;50.822;4.336;2023-07-13T09:30:34;21.30;99.90
21487;DHT22;10905;50.822;4.336;2023-07-13T09:33:03;21.30;99.90
21487;DHT22;10905;50.822;4.336;2023-07-13T09:35:30;21.30;99.90
21487;DHT22;10905;50.822;4.336;2023-07-13T09:38:06;21.50;99.90
21487;DHT22;10905;50.822;4.336;2023-07-13T09:40:38;21.90;99.90
21487;DHT22;10905;50.822;4.336;2023-07-13T09:43:08;21.70;99.90
21487;DHT22;10905;50.822;4.336;2023-07-13T09:45:36;21.60;99.90
21487;DHT22;10905;50.822;4.336;2023-07-13T09:48:10;21.60;99.90
21487;DHT22;10905;50.822;4.336;2023-07-13T09:50:36;21.70;99.90
21487;DHT22;10905;50.822;4.336;2023-07-13T09:53:02;21.70;99.90
21487;DHT22;10905;50.822;4.336;2023-07-13T09:55:37;21.80;99.90
21487;DHT22;10905;50.822;4.336;2023-07-13T09:58:24;21.90;99.90
21487;DHT22;10905;50.822;4.336;2023-07-13T10:01:01;22.00;99.90
21487;DHT22;10905;50.822;4.336;2023-07-13T10:03:34;22.10;99.90
21487;DHT22;10905;50.822;4.336;2023-07-13T10:06:16;22.20;99.90
21487;DHT22;10905;50.822;4.336;2023-07-13T10:08:45;22.30;99.90
21487;DHT22;10905;50.822;4.336;2023-07-13T10:11:21;22.40;99.90
21487;DHT22;10905;50.822;4.336;2023-07-13T10:13:57;22.20;99.90
21487;DHT22;10905;50.822;4.336;2023-07-13T10:16:25;22.20;99.90
21487;DHT22;10905;50.822;4.336;2023-07-13T10:18:56;22.30;99.90
21487;DHT22;10905;50.822;4.336;2023-07-13T10:21:34;22.40;99.90
21487;DHT22;10905;50.822;4.336;2023-07-13T10:24:21;22.60;99.90
21487;DHT22;10905;50.822;4.336;2023-07-13T10:29:25;22.60;99.90
21487;DHT22;10905;50.822;4.336;2023-07-13T10:31:51;22.80;99.90
21487;DHT22;10905;50.822;4.336;2023-07-13T10:34:18;22.80;99.90
21487;DHT22;10905;50.822;4.336;2023-07-13T10:36:46;22.90;99.90
21487;DHT22;10905;50.822;4.336;2023-07-13T10:39:21;23.00;99.90
21487;DHT22;10905;50.822;4.336;2023-07-13T10:41:52;22.90;99.90
21487;DHT22;10905;50.822;4.336;2023-07-13T10:44:25;22.90;99.90
21487;DHT22;10905;50.822;4.336;2023-07-13T10:47:00;22.90;99.90
21487;DHT22;10905;50.822;4.336;2023-07-13T10:49:28;22.90;99.90
21487;DHT22;10905;50.822;4.336;2023-07-13T10:51:54;22.80;99.90
21487;DHT22;10905;50.822;4.336;2023-07-13T10:54:30;22.60;99.90
21487;DHT22;10905;50.822;4.336;2023-07-13T10:57:17;22.70;99.90
21487;DHT22;10905;50.822;4.336;2023-07-13T11:02:38;23.00;99.90
21487;DHT22;10905;50.822;4.336;2023-07-13T11:05:42;23.20;99.90
21487;DHT22;10905;50.822;4.336;2023-07-13T11:09:19;23.20;99.90
21487;DHT22;10905;50.822;4.336;2023-07-13T11:21:31;23.20;99.90
21487;DHT22;10905;50.822;4.336;2023-07-13T11:24:14;23.30;99.90
21487;DHT22;10905;50.822;4.336;2023-07-13T11:31:41;23.80;99.90
21487;DHT22;10905;50.822;4.336;2023-07-13T11:34:13;23.80;99.90
21487;DHT22;10905;50.822;4.336;2023-07-13T11:36:43;23.60;99.90
21487;DHT22;10905;50.822;4.336;2023-07-13T11:42:02;23.10;99.90
21487;DHT22;10905;50.822;4.336;2023-07-13T11:44:30;22.90;99.90
21487;DHT22;10905;50.822;4.336;2023-07-13T11:46:58;22.90;99.90
21487;DHT22;10905;50.822;4.336;2023-07-13T11:49:29;22.90;99.90
21487;DHT22;10905;50.822;4.336;2023-07-13T11:51:56;22.90;99.90
21487;DHT22;10905;50.822;4.336;2023-07-13T11:56:48;22.70;99.90
21487;DHT22;10905;50.822;4.336;2023-07-13T11:59:15;22.50;99.90
21487;DHT22;10905;50.822;4.336;2023-07-13T12:01:44;22.60;99.90
21487;DHT22;10905;50.822;4.336;2023-07-13T12:04:32;22.60;99.90
21487;DHT22;10905;50.822;4.336;2023-07-13T12:07:11;22.50;99.90
21487;DHT22;10905;50.822;4.336;2023-07-13T12:09:39;22.30;99.90
21487;DHT22;10905;50.822;4.336;2023-07-13T12:12:14;22.20;99.90
21487;DHT22;10905;50.822;4.336;2023-07-13T12:14:42;22.30;99.90
21487;DHT22;10905;50.822;4.336;2023-07-13T12:17:18;22.40;99.90
21487;DHT22;10905;50.822;4.336;2023-07-13T12:19:44;22.60;99.90
21487;DHT22;10905;50.822;4.336;2023-07-13T12:22:13;22.70;99.90
21487;DHT22;10905;50.822;4.336;2023-07-13T12:24:40;22.50;99.90
21487;DHT22;10905;50.822;4.336;2023-07-13T12:27:14;22.40;99.90
21487;DHT22;10905;50.822;4.336;2023-07-13T12:29:52;22.00;99.90
21487;DHT22;10905;50.822;4.336;2023-07-13T12:32:19;21.60;99.90
21487;DHT22;10905;50.822;4.336;2023-07-13T12:35:07;21.10;99.90
21487;DHT22;10905;50.822;4.336;2023-07-13T12:37:35;20.60;99.90
21487;DHT22;10905;50.822;4.336;2023-07-13T12:40:01;20.10;99.90
21487;DHT22;10905;50.822;4.336;2023-07-13T12:42:32;20.10;99.90
21487;DHT22;10905;50.822;4.336;2023-07-13T12:47:42;19.90;99.90
21487;DHT22;10905;50.822;4.336;2023-07-13T12:50:20;19.60;99.90
21487;DHT22;10905;50.822;4.336;2023-07-13T12:52:52;19.40;99.90
21487;DHT22;10905;50.822;4.336;2023-07-13T12:55:20;19.20;99.90
21487;DHT22;10905;50.822;4.336;2023-07-13T12:57:57;19.30;99.90
21487;DHT22;10905;50.822;4.336;2023-07-13T13:00:37;19.20;99.90
21487;DHT22;10905;50.822;4.336;2023-07-13T13:05:44;19.30;99.90
21487;DHT22;10905;50.822;4.336;2023-07-13T13:08:11;19.40;99.90
21487;DHT22;10905;50.822;4.336;2023-07-13T13:10:37;19.70;99.90
21487;DHT22;10905;50.822;4.336;2023-07-13T13:13:03;20.00;99.90
21487;DHT22;10905;50.822;4.336;2023-07-13T13:15:29;20.10;99.90
21487;DHT22;10905;50.822;4.336;2023-07-13T13:17:55;20.20;99.90
21487;DHT22;10905;50.822;4.336;2023-07-13T13:20:22;20.40;99.90
21487;DHT22;10905;50.822;4.336;2023-07-13T13:22:48;20.40;99.90
21487;DHT22;10905;50.822;4.336;2023-07-13T13:25:14;20.40;99.90
21487;DHT22;10905;50.822;4.336;2023-07-13T13:27:43;20.60;99.90
21487;DHT22;10905;50.822;4.336;2023-07-13T13:30:14;20.90;99.90
21487;DHT22;10905;50.822;4.336;2023-07-13T13:32:42;21.10;99.90
21487;DHT22;10905;50.822;4.336;2023-07-13T13:35:16;21.30;99.90
21487;DHT22;10905;50.822;4.336;2023-07-13T13:37:42;21.60;99.90
21487;DHT22;10905;50.822;4.336;2023-07-13T13:40:28;21.90;99.90
21487;DHT22;10905;50.822;4.336;2023-07-13T13:42:54;21.90;99.90
21487;DHT22;10905;50.822;4.336;2023-07-13T13:45:21;22.10;99.90
21487;DHT22;10905;50.822;4.336;2023-07-13T13:47:47;22.40;99.90
21487;DHT22;10905;50.822;4.336;2023-07-13T13:50:21;22.50;99.90
21487;DHT22;10905;50.822;4.336;2023-07-13T13:52:50;22.40;99.90
21487;DHT22;10905;50.822;4.336;2023-07-13T13:55:21;22.40;99.90
21487;DHT22;10905;50.822;4.336;2023-07-13T13:57:48;22.50;99.90
21487;DHT22;10905;50.822;4.336;2023-07-13T14:00:16;22.60;99.90
21487;DHT22;10905;50.822;4.336;2023-07-13T14:02:45;22.60;99.90
21487;DHT22;10905;50.822;4.336;2023-07-13T14:05:22;22.60;99.90
21487;DHT22;10905;50.822;4.336;2023-07-13T14:07:48;22.40;99.90
21487;DHT22;10905;50.822;4.336;2023-07-13T14:10:15;22.30;99.90
21487;DHT22;10905;50.822;4.336;2023-07-13T14:12:46;22.20;99.90
21487;DHT22;10905;50.822;4.336;2023-07-13T14:17:44;22.30;99.90
21487;DHT22;10905;50.822;4.336;2023-07-13T14:20:11;22.40;99.90
21487;DHT22;10905;50.822;4.336;2023-07-13T14:22:37;22.40;99.90
21487;DHT22;10905;50.822;4.336;2023-07-13T14:25:03;22.40;99.90
21487;DHT22;10905;50.822;4.336;2023-07-13T14:27:29;22.30;99.90
21487;DHT22;10905;50.822;4.336;2023-07-13T14:29:54;22.30;99.90
21487;DHT22;10905;50.822;4.336;2023-07-13T14:32:20;22.20;99.90
21487;DHT22;10905;50.822;4.336;2023-07-13T14:34:46;22.20;99.90
21487;DHT22;10905;50.822;4.336;2023-07-13T14:37:15;22.30;99.90
21487;DHT22;10905;50.822;4.336;2023-07-13T14:39:43;22.50;99.90
21487;DHT22;10905;50.822;4.336;2023-07-13T14:42:10;22.40;99.90
21487;DHT22;10905;50.822;4.336;2023-07-13T14:44:37;22.50;99.90
21487;DHT22;10905;50.822;4.336;2023-07-13T14:47:04;22.60;99.90
21487;DHT22;10905;50.822;4.336;2023-07-13T14:49:33;22.60;99.90
21487;DHT22;10905;50.822;4.336;2023-07-13T14:52:32;22.60;99.90
21487;DHT22;10905;50.822;4.336;2023-07-13T14:54:57;22.70;99.90
21487;DHT22;10905;50.822;4.336;2023-07-13T14:57:23;22.80;99.90
21487;DHT22;10905;50.822;4.336;2023-07-13T14:59:49;22.80;99.90
21487;DHT22;10905;50.822;4.336;2023-07-13T15:02:33;22.90;99.90
21487;DHT22;10905;50.822;4.336;2023-07-13T15:04:59;23.00;99.90
21487;DHT22;10905;50.822;4.336;2023-07-13T15:07:25;23.10;99.90
21487;DHT22;10905;50.822;4.336;2023-07-13T15:09:51;23.20;99.90
21487;DHT22;10905;50.822;4.336;2023-07-13T15:12:17;23.40;99.90
21487;DHT22;10905;50.822;4.336;2023-07-13T15:14:43;23.60;99.90
21487;DHT22;10905;50.822;4.336;2023-07-13T15:17:45;23.80;99.90
21487;DHT22;10905;50.822;4.336;2023-07-13T15:22:48;24.30;99.90
21487;DHT22;10905;50.822;4.336;2023-07-13T15:25:23;24.30;99.90
21487;DHT22;10905;50.822;4.336;2023-07-13T15:27:50;24.60;99.90
21487;DHT22;10905;50.822;4.336;2023-07-13T15:30:16;24.80;99.90
21487;DHT22;10905;50.822;4.336;2023-07-13T15:32:43;25.00;99.90
21487;DHT22;10905;50.822;4.336;2023-07-13T15:35:14;25.20;99.90
21487;DHT22;10905;50.822;4.336;2023-07-13T15:37:40;25.30;99.90
21487;DHT22;10905;50.822;4.336;2023-07-13T15:40:06;25.40;99.90
21487;DHT22;10905;50.822;4.336;2023-07-13T15:42:32;25.40;99.90
21487;DHT22;10905;50.822;4.336;2023-07-13T15:44:58;25.60;99.90
21487;DHT22;10905;50.822;4.336;2023-07-13T15:47:23;25.60;99.90
21487;DHT22;10905;50.822;4.336;2023-07-13T15:49:49;25.80;99.90
21487;DHT22;10905;50.822;4.336;2023-07-13T15:52:20;25.70;99.90
21487;DHT22;10905;50.822;4.336;2023-07-13T15:54:47;25.70;99.90
21487;DHT22;10905;50.822;4.336;2023-07-13T15:57:13;25.70;99.90
21487;DHT22;10905;50.822;4.336;2023-07-13T15:59:40;25.60;99.90
21487;DHT22;10905;50.822;4.336;2023-07-13T16:02:13;25.40;99.90
21487;DHT22;10905;50.822;4.336;2023-07-13T16:04:39;25.30;99.90
21487;DHT22;10905;50.822;4.336;2023-07-13T16:07:04;24.90;99.90
21487;DHT22;10905;50.822;4.336;2023-07-13T16:09:32;24.90;99.90
21487;DHT22;10905;50.822;4.336;2023-07-13T16:11:57;25.10;99.90
21487;DHT22;10905;50.822;4.336;2023-07-13T16:14:23;24.90;99.90
21487;DHT22;10905;50.822;4.336;2023-07-13T16:16:50;24.80;99.90
21487;DHT22;10905;50.822;4.336;2023-07-13T16:19:19;24.70;99.90
21487;DHT22;10905;50.822;4.336;2023-07-13T16:21:54;24.50;99.90
21487;DHT22;10905;50.822;4.336;2023-07-13T16:24:21;24.30;99.90
21487;DHT22;10905;50.822;4.336;2023-07-13T16:26:49;24.30;99.90
21487;DHT22;10905;50.822;4.336;2023-07-13T16:29:26;24.30;99.90
21487;DHT22;10905;50.822;4.336;2023-07-13T16:34:33;24.50;99.90